createdAt,value
2019-03-10T00:02:01.820Z,8.33
2019-03-10T00:05:06.067Z,8.93
2019-03-10T00:08:09.931Z,8.63
2019-03-10T00:11:13.524Z,12.43
2019-03-10T00:14:17.605Z,8.60
2019-03-10T00:17:21.470Z,9.33
2019-03-10T00:20:25.213Z,9.17
2019-03-10T00:23:28.798Z,13.57
2019-03-10T00:26:32.685Z,9.13
2019-03-10T00:29:36.576Z,8.10
2019-03-10T00:32:40.228Z,8.87
2019-03-10T00:35:43.897Z,10.63
2019-03-10T00:39:23.964Z,8.23
2019-03-10T00:43:18.407Z,10.03
2019-03-10T00:47:11.480Z,8.97
2019-03-10T00:51:00.905Z,9.17
2019-03-10T00:54:04.491Z,17.57
2019-03-10T00:57:08.144Z,29.30
2019-03-10T01:00:16.683Z,30.00
2019-03-10T01:03:20.260Z,29.33
2019-03-10T01:06:24.164Z,27.07
2019-03-10T01:09:27.826Z,26.83
2019-03-10T01:12:31.485Z,25.03
2019-03-10T01:15:35.251Z,24.43
2019-03-10T01:18:40.316Z,22.50
2019-03-10T01:21:44.528Z,21.90
2019-03-10T01:24:48.111Z,25.10
2019-03-10T01:27:51.706Z,19.50
2019-03-10T01:31:04.483Z,24.83
2019-03-10T01:34:37.213Z,19.73
2019-03-10T01:37:40.941Z,18.53
2019-03-10T01:40:44.545Z,14.93
2019-03-10T01:43:48.438Z,17.73
2019-03-10T01:46:52.051Z,18.17
2019-03-10T01:49:55.669Z,16.87
2019-03-10T01:52:59.256Z,16.20
2019-03-10T01:56:02.904Z,16.97
2019-03-10T01:59:06.525Z,15.80
2019-03-10T02:02:10.215Z,12.30
2019-03-10T02:05:13.796Z,13.10
2019-03-10T02:08:17.404Z,13.13
2019-03-10T02:11:21.243Z,16.23
2019-03-10T02:14:24.876Z,15.37
2019-03-10T02:17:28.461Z,13.57
2019-03-10T02:20:32.050Z,15.03
2019-03-10T02:23:35.656Z,13.47
2019-03-10T02:26:39.336Z,13.03
2019-03-10T02:29:43.328Z,14.70
2019-03-10T02:32:46.988Z,9.17
2019-03-10T02:35:50.562Z,12.07
2019-03-10T02:38:54.466Z,12.77
2019-03-10T02:41:58.043Z,11.83
2019-03-10T02:45:01.897Z,14.07
2019-03-10T02:48:05.905Z,14.13
2019-03-10T02:51:09.444Z,10.10
2019-03-10T02:54:13.028Z,12.43
2019-03-10T02:57:16.886Z,9.70
2019-03-10T03:00:20.468Z,12.80
2019-03-10T03:03:24.047Z,9.10
2019-03-10T03:06:27.624Z,10.70
2019-03-10T03:09:31.247Z,12.13
2019-03-10T03:12:34.777Z,10.13
2019-03-10T03:15:38.368Z,9.50
2019-03-10T03:18:41.936Z,9.50
2019-03-10T03:21:45.602Z,10.83
2019-03-10T03:24:49.198Z,8.10
2019-03-10T03:27:52.851Z,10.57
2019-03-10T03:30:56.425Z,7.93
2019-03-10T03:34:00.577Z,9.60
2019-03-10T03:37:04.325Z,12.53
2019-03-10T03:40:08.001Z,8.40
2019-03-10T03:43:11.584Z,10.00
2019-03-10T03:46:15.269Z,7.27
2019-03-10T03:49:18.835Z,8.20
2019-03-10T03:52:22.399Z,8.07
2019-03-10T03:55:26.318Z,7.43
2019-03-10T03:58:30.530Z,8.80
2019-03-10T04:01:38.546Z,6.67
2019-03-10T04:04:42.119Z,7.50
2019-03-10T04:07:45.680Z,6.43
2019-03-10T04:10:49.602Z,6.60
2019-03-10T04:13:53.570Z,7.93
2019-03-10T04:16:57.145Z,7.07
2019-03-10T04:20:00.702Z,7.90
2019-03-10T04:23:04.826Z,7.13
2019-03-10T04:26:08.403Z,7.10
2019-03-10T04:29:11.978Z,9.17
2019-03-10T04:32:15.539Z,6.80
2019-03-10T04:35:19.107Z,7.00
2019-03-10T04:38:22.693Z,6.13
2019-03-10T04:41:26.262Z,7.33
2019-03-10T04:44:30.155Z,6.37
2019-03-10T04:47:33.776Z,8.63
2019-03-10T04:50:37.351Z,6.73
2019-03-10T04:53:40.916Z,6.40
2019-03-10T04:56:51.037Z,6.43
2019-03-10T04:59:54.937Z,6.67
2019-03-10T05:02:58.512Z,6.83
2019-03-10T05:06:02.172Z,6.90
2019-03-10T05:09:08.692Z,7.17
2019-03-10T05:12:12.265Z,5.03
2019-03-10T05:15:16.201Z,7.27
2019-03-10T05:18:20.092Z,6.07
2019-03-10T05:21:23.832Z,5.43
2019-03-10T05:24:27.670Z,5.57
2019-03-10T05:27:31.330Z,4.57
2019-03-10T05:30:35.433Z,6.87
2019-03-10T05:33:39.264Z,7.03
2019-03-10T05:36:43.302Z,7.03
2019-03-10T05:39:47.169Z,6.47
2019-03-10T05:42:51.019Z,5.93
2019-03-10T05:45:54.602Z,5.07
2019-03-10T05:48:58.167Z,7.13
2019-03-10T05:52:01.736Z,6.60
2019-03-10T05:55:05.492Z,6.10
2019-03-10T05:58:09.354Z,7.20
2019-03-10T06:01:13.643Z,4.57
2019-03-10T06:04:17.171Z,5.73
2019-03-10T06:07:20.745Z,7.20
2019-03-10T06:10:24.314Z,3.97
2019-03-10T06:13:27.960Z,5.90
2019-03-10T06:16:32.077Z,6.80
2019-03-10T06:19:35.908Z,6.33
2019-03-10T06:22:39.493Z,6.13
2019-03-10T06:25:43.069Z,6.30
2019-03-10T06:28:46.902Z,7.67
2019-03-10T06:31:50.477Z,5.27
2019-03-10T06:34:54.044Z,5.97
2019-03-10T06:37:57.922Z,7.13
2019-03-10T06:41:01.497Z,5.73
2019-03-10T06:44:05.741Z,6.47
2019-03-10T06:47:09.407Z,5.93
2019-03-10T06:50:13.044Z,10.80
2019-03-10T06:53:16.567Z,38.27
2019-03-10T06:56:20.613Z,12.70
2019-03-10T06:59:24.510Z,16.20
2019-03-10T07:02:28.104Z,16.23
2019-03-10T07:05:31.674Z,16.60
2019-03-10T07:08:35.538Z,14.67
2019-03-10T07:11:39.516Z,14.70
2019-03-10T07:14:43.349Z,13.83
2019-03-10T07:17:46.933Z,10.40
2019-03-10T07:20:50.514Z,12.50
2019-03-10T07:23:54.645Z,14.43
2019-03-10T07:26:58.227Z,10.03
2019-03-10T07:30:05.680Z,11.90
2019-03-10T07:33:18.831Z,11.00
2019-03-10T07:36:47.681Z,9.80
2019-03-10T07:40:03.694Z,10.23
2019-03-10T07:43:16.423Z,8.53
2019-03-10T07:46:34.467Z,10.97
2019-03-10T07:50:03.141Z,9.60
2019-03-10T07:53:19.979Z,10.63
2019-03-10T07:56:41.843Z,7.90
2019-03-10T08:00:13.753Z,8.03
2019-03-10T08:03:36.462Z,6.90
2019-03-10T08:06:47.324Z,9.47
2019-03-10T08:09:59.805Z,7.90
2019-03-10T08:13:28.339Z,7.17
2019-03-10T08:16:57.415Z,7.60
2019-03-10T08:20:22.861Z,10.50
2019-03-10T08:23:36.456Z,9.23
2019-03-10T08:26:53.426Z,8.17
2019-03-10T08:30:14.797Z,9.60
2019-03-10T08:33:41.091Z,5.97
2019-03-10T08:37:06.808Z,6.70
2019-03-10T08:40:19.465Z,8.93
2019-03-10T08:43:33.217Z,6.67
2019-03-10T08:46:52.991Z,7.73
2019-03-10T08:50:11.045Z,6.50
2019-03-10T08:53:25.706Z,6.67
2019-03-10T08:56:48.390Z,7.33
2019-03-10T08:59:59.436Z,7.20
2019-03-10T09:03:19.014Z,6.20
2019-03-10T09:06:40.615Z,6.60
2019-03-10T09:09:53.459Z,7.33
2019-03-10T09:13:07.400Z,7.93
2019-03-10T09:16:32.807Z,7.87
2019-03-10T09:19:43.179Z,6.20
2019-03-10T09:22:57.125Z,6.07
2019-03-10T09:26:08.620Z,6.17
2019-03-10T09:29:30.612Z,6.70
2019-03-10T09:32:50.529Z,5.07
2019-03-10T09:36:04.180Z,8.40
2019-03-10T09:39:27.107Z,7.57
2019-03-10T09:42:39.647Z,7.47
2019-03-10T09:45:55.548Z,6.87
2019-03-10T09:49:24.298Z,7.77
2019-03-10T09:52:59.539Z,5.90
2019-03-10T09:56:21.416Z,12.50
2019-03-10T09:59:44.438Z,45.57
2019-03-10T10:03:08.346Z,12.87
2019-03-10T10:06:29.377Z,15.77
2019-03-10T10:09:50.668Z,12.73
2019-03-10T10:13:04.720Z,11.13
2019-03-10T10:16:16.999Z,14.47
2019-03-10T10:19:27.713Z,13.93
2019-03-10T10:22:43.611Z,13.53
2019-03-10T10:26:02.324Z,12.80
2019-03-10T10:29:22.661Z,13.10
2019-03-10T10:32:38.868Z,12.80
2019-03-10T10:35:52.716Z,14.83
2019-03-10T10:39:14.765Z,16.90
2019-03-10T10:42:37.457Z,16.60
2019-03-10T10:46:00.077Z,19.17
2019-03-10T10:49:09.065Z,15.63
2019-03-10T10:52:18.826Z,18.80
2019-03-10T10:55:30.540Z,17.43
2019-03-10T10:58:41.092Z,15.97
2019-03-10T11:01:53.655Z,19.30
2019-03-10T11:05:02.421Z,14.93
2019-03-10T11:08:18.356Z,14.27
2019-03-10T11:11:49.577Z,24.70
2019-03-10T11:15:07.770Z,22.37
2019-03-10T11:18:29.109Z,16.60
2019-03-10T11:21:51.096Z,17.10
2019-03-10T11:25:14.009Z,15.07
2019-03-10T11:28:43.607Z,18.40
2019-03-10T11:31:58.366Z,13.20
2019-03-10T11:35:24.807Z,14.20
2019-03-10T11:38:47.006Z,17.33
2019-03-10T11:42:01.954Z,13.20
2019-03-10T11:45:19.665Z,15.33
2019-03-10T11:48:36.109Z,13.10
2019-03-10T11:51:52.207Z,14.83
2019-03-10T11:55:08.543Z,12.67
2019-03-10T11:58:27.111Z,11.23
2019-03-10T12:01:45.710Z,16.30
2019-03-10T12:05:11.641Z,10.57
2019-03-10T12:08:26.816Z,14.83
2019-03-10T12:11:30.666Z,13.83
2019-03-10T12:14:34.582Z,15.73
2019-03-10T12:17:38.478Z,15.43
2019-03-10T12:20:42.426Z,14.43
2019-03-10T12:23:46.329Z,13.87
2019-03-10T12:26:50.241Z,11.47
2019-03-10T12:29:53.803Z,11.80
2019-03-10T12:32:57.415Z,12.67
2019-03-10T12:36:01.008Z,14.93
2019-03-10T12:39:07.586Z,6.27
2019-03-10T12:42:11.178Z,10.00
2019-03-10T12:45:14.948Z,12.00
2019-03-10T12:48:18.951Z,9.50
2019-03-10T12:51:23.599Z,11.10
2019-03-10T12:54:30.112Z,9.87
2019-03-10T12:57:33.795Z,8.47
2019-03-10T13:00:37.751Z,7.67
2019-03-10T13:03:41.564Z,15.27
2019-03-10T13:06:45.440Z,9.63
2019-03-10T13:09:49.149Z,11.57
2019-03-10T13:12:53.021Z,14.10
2019-03-10T13:15:56.708Z,9.77
2019-03-10T13:19:00.569Z,9.27
2019-03-10T13:22:04.243Z,8.97
2019-03-10T13:25:08.501Z,9.10
2019-03-10T13:28:13.083Z,14.33
2019-03-10T13:31:18.259Z,10.37
2019-03-10T13:34:22.013Z,14.47
2019-03-10T13:37:25.794Z,10.60
2019-03-10T13:40:30.154Z,12.27
2019-03-10T13:43:34.330Z,10.13
2019-03-10T13:46:37.901Z,10.10
2019-03-10T13:49:41.888Z,12.37
2019-03-10T13:52:45.700Z,13.27
2019-03-10T13:55:49.612Z,11.00
2019-03-10T13:58:53.524Z,10.30
2019-03-10T14:01:57.741Z,8.03
2019-03-10T14:05:01.457Z,10.63
2019-03-10T14:08:05.361Z,7.60
2019-03-10T14:11:09.028Z,11.30
2019-03-10T14:14:12.601Z,6.70
2019-03-10T14:17:16.240Z,6.50
2019-03-10T14:20:20.188Z,7.43
2019-03-10T14:23:23.771Z,9.90
2019-03-10T14:26:27.451Z,7.27
2019-03-10T14:29:31.286Z,5.53
2019-03-10T14:32:34.859Z,9.07
2019-03-10T14:35:38.692Z,6.77
2019-03-10T14:38:42.376Z,5.43
2019-03-10T14:41:46.267Z,9.33
2019-03-10T14:44:49.831Z,5.10
2019-03-10T14:47:54.057Z,5.10
2019-03-10T14:50:57.732Z,4.57
2019-03-10T14:54:01.572Z,3.87
2019-03-10T14:57:05.148Z,4.07
2019-03-10T15:00:12.005Z,5.93
2019-03-10T15:03:15.843Z,5.23
2019-03-10T15:06:19.585Z,5.77
2019-03-10T15:09:23.687Z,4.50
2019-03-10T15:12:28.008Z,5.00
2019-03-10T15:15:32.330Z,4.67
2019-03-10T15:18:36.173Z,5.33
2019-03-10T15:21:39.847Z,3.90
2019-03-10T15:24:43.738Z,4.20
2019-03-10T15:27:47.425Z,4.60
2019-03-10T15:30:51.089Z,2.73
2019-03-10T15:33:55.159Z,6.40
2019-03-10T15:36:59.025Z,8.03
2019-03-10T15:40:02.679Z,7.83
2019-03-10T15:43:06.694Z,4.80
2019-03-10T15:46:10.811Z,8.30
2019-03-10T15:49:14.842Z,3.33
2019-03-10T15:52:18.556Z,2.93
2019-03-10T15:55:22.679Z,4.73
2019-03-10T15:58:26.357Z,4.63
2019-03-10T16:01:30.804Z,4.67
2019-03-10T16:04:34.798Z,5.83
2019-03-10T16:07:38.463Z,6.77
2019-03-10T16:10:44.773Z,3.23
2019-03-10T16:13:47.660Z,3.03
2019-03-10T16:16:51.305Z,4.17
2019-03-10T16:19:54.949Z,5.57
2019-03-10T16:22:58.549Z,4.00
2019-03-10T16:26:02.146Z,2.87
2019-03-10T16:29:08.830Z,3.57
2019-03-10T16:32:12.569Z,4.40
2019-03-10T16:35:17.787Z,6.63
2019-03-10T16:38:21.448Z,7.33
2019-03-10T16:41:25.084Z,7.00
2019-03-10T16:44:28.717Z,9.77
2019-03-10T16:47:32.390Z,10.83
2019-03-10T16:50:36.002Z,11.67
2019-03-10T16:53:41.763Z,11.23
2019-03-10T16:56:45.813Z,11.63
2019-03-10T16:59:49.948Z,10.50
2019-03-10T17:02:53.591Z,8.47
2019-03-10T17:05:57.549Z,8.63
2019-03-10T17:09:01.208Z,12.03
2019-03-10T17:12:05.101Z,8.70
2019-03-10T17:15:10.447Z,11.37
2019-03-10T17:18:14.050Z,31.70
2019-03-10T17:21:17.705Z,11.73
2019-03-10T17:24:21.658Z,15.63
2019-03-10T17:27:25.308Z,18.40
2019-03-10T17:30:30.156Z,13.23
2019-03-10T17:33:33.861Z,12.27
2019-03-10T17:36:37.640Z,14.13
2019-03-10T17:39:41.714Z,12.73
2019-03-10T17:42:45.519Z,10.47
2019-03-10T17:45:49.533Z,10.37
2019-03-10T17:48:53.256Z,14.10
2019-03-10T17:51:57.240Z,14.17
2019-03-10T17:55:03.339Z,14.90
2019-03-10T17:58:11.346Z,8.80
2019-03-10T18:01:18.923Z,10.20
2019-03-10T18:04:24.591Z,10.90
2019-03-10T18:07:28.254Z,10.10
2019-03-10T18:10:33.334Z,10.90
2019-03-10T18:13:38.020Z,8.17
2019-03-10T18:16:44.726Z,11.90
2019-03-10T18:19:48.734Z,9.00
2019-03-10T18:22:54.603Z,15.23
2019-03-10T18:25:58.275Z,16.27
2019-03-10T18:29:07.238Z,8.97
2019-03-10T18:32:15.868Z,6.10
2019-03-10T18:35:23.561Z,7.93
2019-03-10T18:38:32.014Z,25.83
2019-03-10T18:41:40.927Z,12.90
2019-03-10T18:44:45.657Z,19.20
2019-03-10T18:47:51.930Z,12.00
2019-03-10T18:50:57.053Z,11.63
2019-03-10T18:54:03.166Z,11.87
2019-03-10T18:57:10.397Z,16.20
2019-03-10T19:00:22.253Z,10.93
2019-03-10T19:03:27.122Z,10.40
2019-03-10T19:06:34.250Z,14.80
2019-03-10T19:09:39.929Z,11.73
2019-03-10T19:12:52.067Z,11.43
2019-03-10T19:15:56.306Z,14.53
2019-03-10T19:18:59.974Z,13.23
2019-03-10T19:22:04.343Z,9.00
2019-03-10T19:25:11.380Z,18.10
2019-03-10T19:28:17.655Z,11.13
2019-03-10T19:31:26.362Z,13.90
2019-03-10T19:34:35.978Z,12.27
2019-03-10T19:37:43.878Z,18.93
2019-03-10T19:40:52.324Z,10.10
2019-03-10T19:43:56.154Z,12.40
2019-03-10T19:46:59.720Z,12.30
2019-03-10T19:50:03.336Z,11.90
2019-03-10T19:53:06.922Z,11.17
2019-03-10T19:56:10.787Z,13.57
2019-03-10T19:59:14.778Z,12.00
2019-03-10T20:02:18.355Z,14.67
2019-03-10T20:05:22.013Z,16.57
2019-03-10T20:08:35.389Z,16.00
2019-03-10T20:12:01.158Z,19.03
2019-03-10T20:15:14.274Z,12.77
2019-03-10T20:18:27.386Z,16.73
2019-03-10T20:21:39.475Z,12.87
2019-03-10T20:24:53.141Z,13.87
2019-03-10T20:28:05.642Z,10.70
2019-03-10T20:31:09.200Z,12.23
2019-03-10T20:34:13.080Z,14.60
2019-03-10T20:37:16.659Z,11.83
2019-03-10T20:40:20.255Z,13.97
2019-03-10T20:43:24.130Z,11.43
2019-03-10T20:46:28.045Z,11.57
2019-03-10T20:49:32.026Z,13.47
2019-03-10T20:52:38.400Z,13.70
2019-03-10T20:55:44.655Z,13.77
2019-03-10T20:58:53.327Z,13.50
2019-03-10T21:02:02.502Z,15.43
2019-03-10T21:05:08.871Z,18.50
2019-03-10T21:08:16.941Z,17.90
2019-03-10T21:11:27.726Z,18.87
2019-03-10T21:14:31.556Z,18.73
2019-03-10T21:17:35.188Z,18.87
2019-03-10T21:20:39.197Z,15.20
2019-03-10T21:23:42.801Z,17.57
2019-03-10T21:26:46.772Z,15.90
2019-03-10T21:29:50.291Z,16.10
2019-03-10T21:32:54.170Z,16.33
2019-03-10T21:35:57.749Z,12.43
2019-03-10T21:39:01.565Z,13.73
2019-03-10T21:42:05.149Z,15.73
2019-03-10T21:45:08.906Z,11.60
2019-03-10T21:48:12.864Z,15.43
2019-03-10T21:51:19.078Z,10.10
2019-03-10T21:54:22.151Z,11.30
2019-03-10T21:57:26.139Z,12.50
2019-03-10T22:00:30.204Z,23.17
2019-03-10T22:03:34.140Z,52.03
2019-03-10T22:06:37.725Z,11.57
2019-03-10T22:09:41.397Z,17.17
2019-03-10T22:12:45.419Z,18.53
2019-03-10T22:15:48.994Z,19.77
2019-03-10T22:18:52.945Z,18.77
2019-03-10T22:21:58.684Z,17.53
2019-03-10T22:25:12.146Z,14.87
2019-03-10T22:28:08.420Z,12.63
2019-03-10T22:31:12.223Z,10.13
2019-03-10T22:34:16.349Z,16.00
2019-03-10T22:37:20.391Z,11.87
2019-03-10T22:40:23.971Z,10.23
2019-03-10T22:43:28.086Z,14.20
2019-03-10T22:46:31.708Z,9.57
2019-03-10T22:49:35.647Z,11.03
2019-03-10T22:52:39.487Z,10.80
2019-03-10T22:55:43.257Z,19.40
2019-03-10T22:58:47.230Z,10.23
2019-03-10T23:01:50.847Z,11.00
2019-03-10T23:04:54.497Z,10.23
2019-03-10T23:07:58.064Z,10.53
2019-03-10T23:11:01.641Z,7.77
2019-03-10T23:14:05.330Z,7.70
2019-03-10T23:17:09.528Z,7.70
2019-03-10T23:20:13.637Z,8.27
2019-03-10T23:23:17.710Z,13.70
2019-03-10T23:26:21.602Z,12.07
2019-03-10T23:29:25.315Z,7.10
2019-03-10T23:32:29.130Z,15.27
2019-03-10T23:35:32.773Z,6.80
2019-03-10T23:38:36.351Z,7.10
2019-03-10T23:41:40.429Z,8.43
2019-03-10T23:44:44.113Z,6.70
2019-03-10T23:47:48.055Z,9.87
2019-03-10T23:50:51.761Z,7.53
2019-03-10T23:53:55.799Z,9.43
2019-03-10T23:56:59.846Z,7.77
